Auburn, Michigan
Current Conditions -  °F | °C
As of 11:53 AM on Friday 24 Oct 2014 (Local Time) from KMBS Reporting Station
Overcast Overcast  
Wind Chill: 52°   Ceiling: 2800
Heat Index: 52°   Visibility: 8mi
Dew Point: 43°   Wind: 6mph
Humidity: 71%   Direction: 240°WSW
Pressure: 30.06"   Gusts: NA
Location:  43.6°N, 84.07°W
Report Text: KMBS 241553Z 24005KT 8SM BKN028 OVC037 11/06 A3006 RMK AO2 SLP182 T01110061
Loading
Personal Weather Stations






























Interactive Weather Map
Tropical Storm Tracking
New forecast layout! Learn more

10-Day Weather Forecast

Advertisements
Track Severe Weather on mobile